Allentown, New York
Current Conditions -  °F | °C
As of 12:56 AM on Sunday 26 Oct 2014 (Local Time) from KELZ Reporting Station
Clear Clear  
Wind Chill: 42°   Ceiling: Unl
Heat Index: 48°   Visibility: 10mi
Dew Point: 36°   Wind: 15mph
Humidity: 63%   Direction: 300°WNW
Pressure: 29.67"   Gusts: 25mph
Location:  42.08°N, 78.06°W
Report Text: KELZ 260456Z AUTO 30013G22KT 10SM CLR 09/02 A2967 RMK AO2 PK WND 32034/0413 RAB11E20 SLP047 P0000 T00890022 401780067
Loading
Personal Weather Stations






























Interactive Weather Map New forecast layout! Learn more

10-Day Weather Forecast

Advertisements
Track Severe Weather on mobile